createdAt,value
2023-03-17T00:01:11.097Z,11.73
2023-03-17T00:03:40.384Z,10.70
2023-03-17T00:06:08.310Z,11.63
2023-03-17T00:08:36.413Z,11.37
2023-03-17T00:11:04.096Z,11.37
2023-03-17T00:13:31.235Z,10.53
2023-03-17T00:16:03.439Z,10.40
2023-03-17T00:18:31.774Z,11.13
2023-03-17T00:20:58.995Z,10.70
2023-03-17T00:23:26.246Z,10.23
2023-03-17T00:25:54.277Z,10.43
2023-03-17T00:28:22.790Z,10.67
2023-03-17T00:30:50.609Z,11.00
2023-03-17T00:33:17.782Z,10.90
2023-03-17T00:35:46.645Z,10.73
2023-03-17T00:38:17.917Z,11.10
2023-03-17T00:43:12.688Z,9.87
2023-03-17T00:45:40.652Z,10.53
2023-03-17T00:48:13.898Z,9.53
2023-03-17T00:50:41.510Z,10.27
2023-03-17T00:53:11.559Z,10.87
2023-03-17T00:55:38.691Z,10.87
2023-03-17T00:58:18.507Z,10.70
2023-03-17T01:00:45.882Z,10.53
2023-03-17T01:03:13.495Z,10.70
2023-03-17T01:05:41.509Z,10.80
2023-03-17T01:08:09.216Z,9.87
2023-03-17T01:10:37.237Z,11.07
2023-03-17T01:13:05.334Z,11.67
2023-03-17T01:15:32.985Z,10.73
2023-03-17T01:18:02.798Z,9.70
2023-03-17T01:20:32.055Z,10.13
2023-03-17T01:22:59.710Z,10.50
2023-03-17T01:25:27.620Z,9.83
2023-03-17T01:27:57.679Z,10.10
2023-03-17T01:30:27.683Z,9.47
2023-03-17T01:32:55.792Z,9.90
2023-03-17T01:35:24.434Z,10.23
2023-03-17T01:37:51.718Z,10.47
2023-03-17T01:40:20.822Z,10.10
2023-03-17T01:43:13.969Z,9.93
2023-03-17T01:45:59.839Z,10.10
2023-03-17T01:48:29.112Z,10.37
2023-03-17T01:50:58.114Z,10.17
2023-03-17T01:53:25.509Z,10.70
2023-03-17T01:55:53.404Z,10.77
2023-03-17T01:58:23.086Z,10.70
2023-03-17T02:00:50.555Z,9.87
2023-03-17T02:03:17.984Z,9.97
2023-03-17T02:05:45.260Z,9.87
2023-03-17T02:08:13.954Z,10.77
2023-03-17T02:10:42.113Z,10.20
2023-03-17T02:13:11.585Z,9.37
2023-03-17T02:15:40.402Z,9.10
2023-03-17T02:18:08.219Z,9.60
2023-03-17T02:20:35.626Z,9.23
2023-03-17T02:23:04.154Z,9.80
2023-03-17T02:25:31.585Z,9.73
2023-03-17T02:28:01.748Z,9.20
2023-03-17T02:30:29.443Z,9.43
2023-03-17T02:32:56.817Z,9.73
2023-03-17T02:35:24.039Z,9.73
2023-03-17T02:37:51.207Z,9.70
2023-03-17T02:40:18.752Z,9.37
2023-03-17T02:42:46.696Z,9.63
2023-03-17T02:45:14.444Z,8.37
2023-03-17T02:47:42.626Z,9.13
2023-03-17T02:50:10.741Z,8.50
2023-03-17T02:52:37.842Z,8.27
2023-03-17T02:55:05.633Z,8.73
2023-03-17T02:57:32.776Z,8.50
2023-03-17T02:59:59.948Z,8.83
2023-03-17T03:02:27.119Z,8.80
2023-03-17T03:04:54.302Z,8.37
2023-03-17T03:07:22.821Z,8.80
2023-03-17T03:09:49.927Z,8.57
2023-03-17T03:12:17.018Z,8.03
2023-03-17T03:14:44.153Z,8.50
2023-03-17T03:17:11.426Z,7.77
2023-03-17T03:19:39.325Z,8.17
2023-03-17T03:22:06.557Z,8.13
2023-03-17T03:24:33.754Z,8.07
2023-03-17T03:27:00.944Z,7.83
2023-03-17T03:29:28.091Z,8.20
2023-03-17T03:31:55.258Z,8.27
2023-03-17T03:34:22.366Z,7.50
2023-03-17T03:36:49.487Z,7.93
2023-03-17T03:39:16.795Z,7.83
2023-03-17T03:41:43.904Z,8.20
2023-03-17T03:44:11.306Z,7.57
2023-03-17T03:46:38.454Z,8.33
2023-03-17T03:49:05.597Z,6.70
2023-03-17T03:51:32.845Z,6.33
2023-03-17T03:54:01.333Z,6.83
2023-03-17T03:56:28.508Z,6.47
2023-03-17T03:58:56.460Z,6.97
2023-03-17T04:01:23.612Z,6.53
2023-03-17T04:03:51.310Z,6.73
2023-03-17T04:06:18.425Z,6.63
2023-03-17T04:08:45.845Z,7.13
2023-03-17T04:11:12.981Z,7.50
2023-03-17T04:13:40.117Z,7.63
2023-03-17T04:16:07.489Z,7.27
2023-03-17T04:18:35.635Z,7.73
2023-03-17T04:21:02.876Z,8.30
2023-03-17T04:23:31.516Z,8.20
2023-03-17T04:25:59.092Z,8.30
2023-03-17T04:28:26.214Z,8.23
2023-03-17T04:30:53.313Z,8.00
2023-03-17T04:33:20.480Z,7.93
2023-03-17T04:35:48.125Z,8.27
2023-03-17T04:38:15.702Z,8.37
2023-03-17T04:40:42.807Z,8.17
2023-03-17T04:43:10.335Z,8.40
2023-03-17T04:45:37.541Z,8.30
2023-03-17T04:48:04.928Z,8.23
2023-03-17T04:50:33.315Z,8.50
2023-03-17T04:53:00.784Z,8.40
2023-03-17T04:55:28.119Z,7.80
2023-03-17T04:57:55.268Z,8.67
2023-03-17T05:00:22.471Z,7.87
2023-03-17T05:02:49.657Z,8.27
2023-03-17T05:05:16.785Z,8.47
2023-03-17T05:07:44.787Z,7.87
2023-03-17T05:10:12.636Z,7.67
2023-03-17T05:12:39.796Z,8.30
2023-03-17T05:15:07.242Z,7.60
2023-03-17T05:17:34.339Z,7.53
2023-03-17T05:20:01.483Z,8.50
2023-03-17T05:22:28.642Z,7.90
2023-03-17T05:24:55.920Z,9.23
2023-03-17T05:27:23.259Z,8.60
2023-03-17T05:29:50.424Z,8.70
2023-03-17T05:32:18.334Z,8.30
2023-03-17T05:34:46.298Z,7.87
2023-03-17T05:37:14.134Z,8.00
2023-03-17T05:39:42.066Z,8.17
2023-03-17T05:42:09.228Z,9.10
2023-03-17T05:44:36.427Z,8.23
2023-03-17T05:47:03.509Z,8.70
2023-03-17T05:49:30.886Z,7.93
2023-03-17T05:51:58.816Z,7.43
2023-03-17T05:54:25.968Z,7.97
2023-03-17T05:56:53.121Z,7.90
2023-03-17T05:59:20.587Z,7.93
2023-03-17T06:01:47.712Z,7.53
2023-03-17T06:04:15.375Z,7.33
2023-03-17T06:06:42.557Z,6.53
2023-03-17T06:09:09.688Z,6.83
2023-03-17T06:11:36.964Z,6.90
2023-03-17T06:14:04.388Z,6.87
2023-03-17T06:16:33.183Z,6.93
2023-03-17T06:19:00.506Z,6.13
2023-03-17T06:21:27.693Z,6.20
2023-03-17T06:23:54.833Z,6.20
2023-03-17T06:26:22.078Z,5.87
2023-03-17T06:28:49.221Z,5.20
2023-03-17T06:31:16.428Z,5.30
2023-03-17T06:33:43.827Z,4.40
2023-03-17T06:36:11.081Z,4.30
2023-03-17T06:38:39.303Z,4.27
2023-03-17T06:41:06.922Z,4.70
2023-03-17T06:43:34.068Z,4.33
2023-03-17T06:46:01.412Z,4.57
2023-03-17T06:48:28.667Z,4.43
2023-03-17T06:50:56.228Z,3.90
2023-03-17T06:53:23.320Z,4.33
2023-03-17T06:55:50.464Z,4.33
2023-03-17T06:58:17.815Z,4.00
2023-03-17T07:00:45.505Z,4.37
2023-03-17T07:03:12.722Z,4.50
2023-03-17T07:05:40.253Z,4.60
2023-03-17T07:08:07.458Z,4.30
2023-03-17T07:10:34.787Z,4.30
2023-03-17T07:13:02.450Z,4.67
2023-03-17T07:15:34.669Z,4.43
2023-03-17T07:18:01.943Z,4.33
2023-03-17T07:20:29.118Z,4.13
2023-03-17T07:22:56.525Z,4.72
2023-03-17T07:25:23.814Z,4.25
2023-03-17T07:27:51.967Z,4.47
2023-03-17T07:30:19.433Z,4.65
2023-03-17T07:32:47.263Z,4.10
2023-03-17T07:35:15.535Z,4.57
2023-03-17T07:37:42.929Z,4.30
2023-03-17T07:40:10.882Z,3.58
2023-03-17T07:42:38.745Z,3.45
2023-03-17T07:45:06.213Z,3.72
2023-03-17T07:47:33.332Z,3.85
2023-03-17T07:50:00.610Z,3.50
2023-03-17T07:52:27.825Z,3.75
2023-03-17T07:54:55.892Z,3.95
2023-03-17T07:57:23.226Z,3.90
2023-03-17T07:59:50.749Z,4.90
2023-03-17T08:02:19.485Z,4.60
2023-03-17T08:04:46.733Z,4.05
2023-03-17T08:07:15.509Z,5.25
2023-03-17T08:09:42.709Z,4.93
2023-03-17T08:12:10.077Z,3.70
2023-03-17T08:14:37.232Z,4.00
2023-03-17T08:17:04.876Z,4.38
2023-03-17T08:19:32.123Z,4.82
2023-03-17T08:21:59.369Z,4.35
2023-03-17T08:24:27.028Z,4.40
2023-03-17T08:26:54.222Z,3.70
2023-03-17T08:29:21.352Z,3.55
2023-03-17T08:31:48.580Z,4.75
2023-03-17T08:34:16.516Z,4.18
2023-03-17T08:36:43.777Z,3.45
2023-03-17T08:39:10.948Z,3.20
2023-03-17T08:41:38.556Z,3.40
2023-03-17T08:44:05.702Z,3.30
2023-03-17T08:46:33.555Z,3.30
2023-03-17T08:49:01.776Z,3.40
2023-03-17T08:51:30.826Z,3.10
2023-03-17T08:53:58.570Z,3.05
2023-03-17T08:56:26.030Z,3.17
2023-03-17T08:58:53.559Z,3.50
2023-03-17T09:01:21.241Z,3.17
2023-03-17T09:03:49.556Z,3.28
2023-03-17T09:06:16.940Z,3.60
2023-03-17T09:08:49.679Z,3.40
2023-03-17T09:11:18.642Z,3.25
2023-03-17T09:13:46.518Z,2.97
2023-03-17T09:16:14.751Z,3.42
2023-03-17T09:18:42.077Z,3.50
2023-03-17T09:21:09.811Z,3.60
2023-03-17T09:23:36.932Z,3.92
2023-03-17T09:26:04.128Z,3.53
2023-03-17T09:28:31.813Z,3.40
2023-03-17T09:31:03.430Z,3.25
2023-03-17T09:33:31.000Z,3.13
2023-03-17T09:35:58.385Z,3.10
2023-03-17T09:38:26.317Z,3.17
2023-03-17T09:40:53.414Z,3.65
2023-03-17T09:43:24.015Z,3.45
2023-03-17T09:45:52.216Z,3.00
2023-03-17T09:48:26.137Z,3.22
2023-03-17T09:51:04.865Z,3.45
2023-03-17T09:53:35.842Z,3.65
2023-03-17T09:56:06.595Z,3.42
2023-03-17T09:58:34.446Z,3.13
2023-03-17T10:01:05.328Z,3.35
2023-03-17T10:03:33.008Z,3.13
2023-03-17T10:06:09.988Z,3.72
2023-03-17T10:08:43.859Z,3.47
2023-03-17T10:11:25.590Z,3.22
2023-03-17T10:13:55.786Z,3.65
2023-03-17T10:16:28.336Z,3.50
2023-03-17T10:19:01.699Z,3.50
2023-03-17T10:21:34.396Z,3.40
2023-03-17T10:24:03.684Z,3.28
2023-03-17T10:26:45.114Z,3.20
2023-03-17T10:29:17.563Z,3.28
2023-03-17T10:31:45.130Z,3.55
2023-03-17T10:34:39.593Z,3.00
2023-03-17T10:37:06.851Z,3.40
2023-03-17T10:39:42.239Z,3.20
2023-03-17T10:42:15.532Z,2.95
2023-03-17T10:44:44.765Z,3.33
2023-03-17T10:47:21.734Z,3.50
2023-03-17T10:49:49.495Z,3.65
2023-03-17T10:52:21.128Z,3.40
2023-03-17T10:54:51.287Z,3.35
2023-03-17T10:57:18.547Z,3.42
2023-03-17T10:59:53.972Z,3.20
2023-03-17T11:02:24.040Z,3.25
2023-03-17T11:04:54.566Z,2.95
2023-03-17T11:07:27.176Z,3.20
2023-03-17T11:09:58.348Z,3.40
2023-03-17T11:12:41.431Z,3.05
2023-03-17T11:15:12.018Z,3.45
2023-03-17T11:17:46.460Z,3.10
2023-03-17T11:20:16.937Z,3.22
2023-03-17T11:22:50.083Z,3.75
2023-03-17T11:25:20.944Z,3.25
2023-03-17T11:27:52.647Z,3.17
2023-03-17T11:30:29.499Z,3.47
2023-03-17T11:33:00.389Z,3.28
2023-03-17T11:35:43.378Z,3.30
2023-03-17T11:38:22.869Z,3.22
2023-03-17T11:41:02.182Z,2.90
2023-03-17T11:43:51.560Z,3.40
2023-03-17T11:46:28.918Z,3.45
2023-03-17T11:49:14.844Z,3.20
2023-03-17T11:51:49.098Z,3.40
2023-03-17T11:54:36.456Z,3.17
2023-03-17T11:57:05.917Z,3.40
2023-03-17T11:59:39.258Z,3.15
2023-03-17T12:02:25.198Z,3.40
2023-03-17T12:04:57.499Z,3.10
2023-03-17T12:07:33.302Z,3.33
2023-03-17T12:10:15.820Z,3.00
2023-03-17T12:12:48.730Z,3.78
2023-03-17T12:15:27.660Z,5.90
2023-03-17T12:17:58.052Z,3.95
2023-03-17T12:20:41.030Z,3.65
2023-03-17T12:23:17.154Z,2.83
2023-03-17T12:25:59.328Z,7.53
2023-03-17T12:28:28.666Z,4.57
2023-03-17T12:31:14.083Z,4.53
2023-03-17T12:33:44.750Z,3.20
2023-03-17T12:36:15.221Z,2.90
2023-03-17T12:38:45.375Z,2.72
2023-03-17T12:41:19.978Z,2.80
2023-03-17T12:43:53.297Z,3.00
2023-03-17T12:46:35.491Z,3.35
2023-03-17T12:49:11.862Z,3.20
2023-03-17T12:52:02.631Z,2.85
2023-03-17T12:54:31.416Z,3.13
2023-03-17T12:57:02.969Z,3.15
2023-03-17T12:59:31.255Z,2.80
2023-03-17T13:02:06.254Z,3.30
2023-03-17T13:04:35.606Z,3.05
2023-03-17T13:07:06.371Z,2.90
2023-03-17T13:09:33.909Z,3.22
2023-03-17T13:12:02.158Z,3.60
2023-03-17T13:14:41.796Z,3.20
2023-03-17T13:17:19.677Z,3.25
2023-03-17T13:20:05.502Z,3.60
2023-03-17T13:22:37.924Z,3.22
2023-03-17T13:25:14.314Z,2.88
2023-03-17T13:27:43.847Z,3.03
2023-03-17T13:30:37.728Z,3.20
2023-03-17T13:33:16.450Z,3.20
2023-03-17T13:36:03.937Z,3.15
2023-03-17T13:39:04.914Z,3.08
2023-03-17T13:41:40.131Z,3.83
2023-03-17T13:44:07.795Z,3.42
2023-03-17T13:46:39.302Z,3.25
2023-03-17T13:49:18.834Z,3.50
2023-03-17T13:52:02.635Z,3.10
2023-03-17T13:54:32.259Z,3.75
2023-03-17T13:57:17.974Z,3.20
2023-03-17T13:59:51.181Z,3.22
2023-03-17T14:02:20.399Z,3.50
2023-03-17T14:04:55.701Z,3.63
2023-03-17T14:07:24.482Z,3.33
2023-03-17T14:09:55.547Z,3.30
2023-03-17T14:12:25.470Z,3.53
2023-03-17T14:15:25.338Z,3.35
2023-03-17T14:17:59.336Z,3.20
2023-03-17T14:20:28.358Z,2.90
2023-03-17T14:23:03.138Z,3.10
2023-03-17T14:25:37.626Z,3.45
2023-03-17T14:28:09.943Z,3.30
2023-03-17T14:30:38.164Z,3.08
2023-03-17T14:33:23.474Z,3.40
2023-03-17T14:35:54.629Z,3.33
2023-03-17T14:38:24.558Z,3.55
2023-03-17T14:40:52.494Z,3.42
2023-03-17T14:43:19.676Z,3.17
2023-03-17T14:45:49.655Z,2.88
2023-03-17T14:48:18.230Z,3.63
2023-03-17T14:50:53.793Z,4.15
2023-03-17T14:53:22.475Z,3.03
2023-03-17T14:55:49.579Z,3.60
2023-03-17T14:58:24.924Z,3.35
2023-03-17T15:00:58.217Z,3.22
2023-03-17T15:03:28.686Z,3.50
2023-03-17T15:06:05.523Z,3.00
2023-03-17T15:08:36.494Z,3.50
2023-03-17T15:11:04.939Z,3.40
2023-03-17T15:13:34.542Z,3.20
2023-03-17T15:16:07.288Z,3.08
2023-03-17T15:18:34.429Z,3.10
2023-03-17T15:21:01.578Z,2.63
2023-03-17T15:23:29.766Z,3.08
2023-03-17T15:25:57.364Z,2.92
2023-03-17T15:28:31.624Z,2.70
2023-03-17T15:31:06.055Z,2.40
2023-03-17T15:33:36.036Z,2.83
2023-03-17T15:36:03.303Z,2.53
2023-03-17T15:38:30.483Z,2.60
2023-03-17T15:40:57.999Z,2.85
2023-03-17T15:43:25.407Z,2.70
2023-03-17T15:45:59.102Z,2.60
2023-03-17T15:48:27.678Z,2.45
2023-03-17T15:50:56.628Z,2.28
2023-03-17T15:53:23.756Z,2.80
2023-03-17T15:55:51.180Z,2.35
2023-03-17T15:58:18.757Z,2.83
2023-03-17T16:00:49.222Z,2.75
2023-03-17T16:03:19.428Z,3.33
2023-03-17T16:05:46.584Z,2.40
2023-03-17T16:08:14.685Z,2.70
2023-03-17T16:10:42.274Z,2.78
2023-03-17T16:13:09.595Z,2.78
2023-03-17T16:15:41.546Z,2.80
2023-03-17T16:18:12.485Z,3.27
2023-03-17T16:20:41.626Z,3.00
2023-03-17T16:23:12.918Z,2.97
2023-03-17T16:25:40.056Z,3.30
2023-03-17T16:28:17.737Z,3.90
2023-03-17T16:30:46.169Z,3.53
2023-03-17T16:33:16.904Z,3.80
2023-03-17T16:35:44.324Z,4.87
2023-03-17T16:38:13.042Z,4.20
2023-03-17T16:40:40.547Z,4.53
2023-03-17T16:43:24.428Z,4.07
2023-03-17T16:45:53.109Z,3.43
2023-03-17T16:48:20.314Z,4.00
2023-03-17T16:50:47.672Z,4.13
2023-03-17T16:53:14.810Z,4.30
2023-03-17T16:55:42.440Z,4.60
2023-03-17T16:58:20.700Z,4.73
2023-03-17T17:00:48.572Z,4.70
2023-03-17T17:03:15.954Z,4.57
2023-03-17T17:05:43.835Z,3.93
2023-03-17T17:08:11.122Z,3.47
2023-03-17T17:10:38.881Z,3.80
2023-03-17T17:13:07.746Z,4.03
2023-03-17T17:15:36.146Z,4.20
2023-03-17T17:18:08.408Z,3.23
2023-03-17T17:20:38.547Z,3.17
2023-03-17T17:23:06.829Z,3.37
2023-03-17T17:25:34.192Z,3.20
2023-03-17T17:28:01.381Z,3.07
2023-03-17T17:30:29.742Z,3.10
2023-03-17T17:32:58.293Z,2.93
2023-03-17T17:35:26.392Z,3.00
2023-03-17T17:37:53.727Z,3.27
2023-03-17T17:40:22.103Z,3.53
2023-03-17T17:42:49.206Z,3.97
2023-03-17T17:45:16.902Z,4.90
2023-03-17T17:47:44.488Z,4.13
2023-03-17T17:50:16.179Z,3.80
2023-03-17T17:52:43.299Z,3.47
2023-03-17T17:55:10.408Z,3.00
2023-03-17T17:57:37.510Z,2.60
2023-03-17T18:00:06.370Z,3.10
2023-03-17T18:02:33.538Z,3.60
2023-03-17T18:05:01.118Z,7.53
2023-03-17T18:07:28.259Z,9.47
2023-03-17T18:09:55.422Z,10.20
2023-03-17T18:12:22.530Z,9.17
2023-03-17T18:14:49.651Z,6.60
2023-03-17T18:17:21.689Z,5.73
2023-03-17T18:19:53.365Z,4.63
2023-03-17T18:22:21.518Z,4.37
2023-03-17T18:24:49.217Z,4.23
2023-03-17T18:27:16.947Z,4.90
2023-03-17T18:29:44.869Z,5.07
2023-03-17T18:32:12.408Z,4.80
2023-03-17T18:34:43.393Z,4.53
2023-03-17T18:37:12.597Z,26.83
2023-03-17T18:39:41.012Z,7.40
2023-03-17T18:42:09.313Z,7.30
2023-03-17T18:44:36.436Z,7.70
2023-03-17T18:47:04.163Z,7.30
2023-03-17T18:49:31.305Z,7.20
2023-03-17T18:51:59.551Z,7.70
2023-03-17T18:54:27.702Z,4.97
2023-03-17T18:56:55.134Z,8.13
2023-03-17T18:59:22.266Z,9.63
2023-03-17T19:01:49.467Z,6.70
2023-03-17T19:04:16.783Z,6.50
2023-03-17T19:06:43.987Z,5.87
2023-03-17T19:09:11.563Z,5.70
2023-03-17T19:11:39.618Z,4.90
2023-03-17T19:14:07.205Z,8.80
2023-03-17T19:16:34.536Z,5.80
2023-03-17T19:19:01.776Z,5.13
2023-03-17T19:21:29.601Z,5.63
2023-03-17T19:23:59.156Z,4.70
2023-03-17T19:26:27.068Z,4.37
2023-03-17T19:28:56.299Z,4.40
2023-03-17T19:31:24.766Z,4.60
2023-03-17T19:33:52.080Z,4.37
2023-03-17T19:36:19.300Z,4.60
2023-03-17T19:38:46.478Z,4.50
2023-03-17T19:41:15.595Z,3.23
2023-03-17T19:43:42.838Z,4.20
2023-03-17T19:46:13.184Z,4.07
2023-03-17T19:48:40.778Z,4.27
2023-03-17T19:51:08.106Z,4.60
2023-03-17T19:53:35.524Z,4.10
2023-03-17T19:56:02.659Z,4.37
2023-03-17T19:58:29.824Z,4.20
2023-03-17T20:00:57.028Z,4.40
2023-03-17T20:03:26.150Z,4.87
2023-03-17T20:05:53.813Z,4.30
2023-03-17T20:08:22.417Z,5.73
2023-03-17T20:10:53.907Z,5.20
2023-03-17T20:13:21.859Z,6.20
2023-03-17T20:15:50.133Z,5.80
2023-03-17T20:18:17.381Z,5.20
2023-03-17T20:20:49.414Z,5.57
2023-03-17T20:23:16.882Z,5.40
2023-03-17T20:25:44.351Z,5.50
2023-03-17T20:28:11.993Z,5.73
2023-03-17T20:30:40.354Z,5.73
2023-03-17T20:33:09.668Z,6.20
2023-03-17T20:35:38.824Z,5.93
2023-03-17T20:38:06.081Z,6.23
2023-03-17T20:40:33.422Z,5.77
2023-03-17T20:43:00.970Z,9.40
2023-03-17T20:45:28.169Z,9.13
2023-03-17T20:47:56.020Z,8.60
2023-03-17T20:50:23.274Z,8.67
2023-03-17T20:52:50.646Z,8.37
2023-03-17T20:55:19.730Z,7.93
2023-03-17T20:57:47.551Z,8.63
2023-03-17T21:00:20.171Z,8.17
2023-03-17T21:02:51.123Z,8.67
2023-03-17T21:05:20.031Z,7.50
2023-03-17T21:07:47.923Z,7.43
2023-03-17T21:10:15.619Z,7.40
2023-03-17T21:12:44.909Z,7.40
2023-03-17T21:15:13.005Z,7.17
2023-03-17T21:17:41.975Z,7.13
2023-03-17T21:20:10.945Z,6.47
2023-03-17T21:22:39.987Z,6.53
2023-03-17T21:25:08.665Z,6.90
2023-03-17T21:27:39.384Z,6.53
2023-03-17T21:30:08.053Z,6.97
2023-03-17T21:32:35.281Z,9.43
2023-03-17T21:35:02.467Z,9.67
2023-03-17T21:37:29.592Z,9.47
2023-03-17T21:39:56.780Z,9.07
2023-03-17T21:42:24.716Z,8.87
2023-03-17T21:44:52.331Z,9.13
2023-03-17T21:47:19.883Z,8.30
2023-03-17T21:49:47.104Z,8.50
2023-03-17T21:52:15.093Z,8.40
2023-03-17T21:54:42.751Z,9.03
2023-03-17T21:57:11.834Z,9.27
2023-03-17T21:59:40.004Z,13.47
2023-03-17T22:02:07.353Z,8.23
2023-03-17T22:04:34.470Z,8.43
2023-03-17T22:07:04.398Z,8.90
2023-03-17T22:09:31.682Z,8.90
2023-03-17T22:11:59.394Z,8.70
2023-03-17T22:14:26.975Z,8.80
2023-03-17T22:16:54.224Z,8.73
2023-03-17T22:19:21.577Z,9.07
2023-03-17T22:21:48.771Z,8.50
2023-03-17T22:24:16.023Z,9.03
2023-03-17T22:26:43.190Z,9.17
2023-03-17T22:29:10.537Z,8.63
2023-03-17T22:31:37.675Z,8.80
2023-03-17T22:34:04.923Z,9.10
2023-03-17T22:36:32.073Z,8.60
2023-03-17T22:38:59.507Z,8.90
2023-03-17T22:41:28.103Z,8.73
2023-03-17T22:43:55.620Z,8.37
2023-03-17T22:46:22.937Z,8.90
2023-03-17T22:48:50.824Z,9.63
2023-03-17T22:51:22.509Z,8.40
2023-03-17T22:53:50.248Z,9.40
2023-03-17T22:56:18.033Z,8.70
2023-03-17T22:58:45.710Z,8.80
2023-03-17T23:01:13.515Z,8.73
2023-03-17T23:03:40.840Z,8.97
2023-03-17T23:06:08.635Z,8.67
2023-03-17T23:08:36.777Z,8.07
2023-03-17T23:11:05.941Z,9.00
2023-03-17T23:13:33.161Z,8.70
2023-03-17T23:16:00.447Z,8.57
2023-03-17T23:18:27.780Z,8.67
2023-03-17T23:20:54.940Z,9.20
2023-03-17T23:23:22.074Z,9.50
2023-03-17T23:25:49.178Z,9.13
2023-03-17T23:28:16.413Z,9.53
2023-03-17T23:30:45.746Z,9.73
2023-03-17T23:33:13.463Z,8.37
2023-03-17T23:35:40.781Z,8.47
2023-03-17T23:38:08.726Z,8.90
2023-03-17T23:40:36.350Z,10.53
2023-03-17T23:43:05.492Z,19.83
2023-03-17T23:45:34.243Z,13.43
2023-03-17T23:48:01.677Z,10.87
2023-03-17T23:50:28.813Z,10.57
2023-03-17T23:52:56.129Z,12.87
2023-03-17T23:55:23.244Z,10.70
2023-03-17T23:57:50.756Z,10.07
